createdAt,value
2022-10-30T00:02:27.966Z,101253.38
2022-10-30T00:05:01.870Z,101255.03
2022-10-30T00:07:35.563Z,101260.19
2022-10-30T00:10:10.393Z,101244.22
2022-10-30T00:12:44.218Z,101249.28
2022-10-30T00:15:18.140Z,101253.63
2022-10-30T00:17:53.011Z,101238.72
2022-10-30T00:20:26.749Z,101244.94
2022-10-30T00:23:00.746Z,101244.06
2022-10-30T00:25:35.937Z,101236.13
2022-10-30T00:28:09.674Z,101239.47
2022-10-30T00:30:43.479Z,101242.09
2022-10-30T00:33:18.292Z,101233.34
2022-10-30T00:35:52.003Z,101231.63
2022-10-30T00:38:25.568Z,101242.91
2022-10-30T00:40:59.264Z,101235.78
2022-10-30T00:43:36.480Z,101232.19
2022-10-30T00:46:19.429Z,101230.44
2022-10-30T00:48:59.163Z,101224.25
2022-10-30T00:51:34.654Z,101228.50
2022-10-30T00:54:10.356Z,101230.06
2022-10-30T00:56:44.578Z,101218.59
2022-10-30T00:59:24.064Z,101219.44
2022-10-30T01:01:58.777Z,101218.59
2022-10-30T01:04:37.458Z,101224.50
2022-10-30T01:07:13.960Z,101222.63
2022-10-30T01:09:48.486Z,101225.13
2022-10-30T01:12:22.182Z,101220.66
2022-10-30T01:14:59.533Z,101222.28
2022-10-30T01:18:16.196Z,101227.44
2022-10-30T01:21:10.648Z,101216.72
2022-10-30T01:23:55.535Z,101220.19
2022-10-30T01:26:39.889Z,101217.63
2022-10-30T01:29:32.430Z,101217.78
2022-10-30T01:32:20.357Z,101215.25
2022-10-30T01:35:00.584Z,101208.28
2022-10-30T01:37:41.621Z,101210.09
2022-10-30T01:40:18.181Z,101208.44
2022-10-30T01:42:54.184Z,101205.91
2022-10-30T01:45:42.183Z,101203.13
2022-10-30T01:48:34.270Z,101204.13
2022-10-30T01:51:19.168Z,101201.41
2022-10-30T01:54:01.433Z,101200.50
2022-10-30T01:56:41.111Z,101190.88
2022-10-30T01:59:18.826Z,101191.59
2022-10-30T02:01:53.371Z,101192.34
2022-10-30T02:04:28.054Z,101188.66
2022-10-30T02:07:02.010Z,101190.31
2022-10-30T02:09:36.982Z,101192.84
2022-10-30T02:12:11.579Z,101192.69
2022-10-30T02:14:48.938Z,101181.13
2022-10-30T02:17:23.138Z,101187.19
2022-10-30T02:19:56.636Z,101186.22
2022-10-30T02:22:32.338Z,101183.44
2022-10-30T02:25:06.599Z,101185.88
2022-10-30T02:27:40.616Z,101185.00
2022-10-30T02:30:14.790Z,101192.69
2022-10-30T02:32:48.645Z,101187.38
2022-10-30T02:35:22.151Z,101187.22
2022-10-30T02:37:57.404Z,101186.22
2022-10-30T02:40:31.362Z,101183.63
2022-10-30T02:43:05.341Z,101182.78
2022-10-30T02:45:39.001Z,101192.38
2022-10-30T02:48:12.706Z,101198.31
2022-10-30T02:50:46.209Z,101194.63
2022-10-30T02:53:21.266Z,101182.19
2022-10-30T02:55:54.786Z,101185.56
2022-10-30T02:58:28.446Z,101190.63
2022-10-30T03:01:06.944Z,101196.59
2022-10-30T03:03:41.046Z,101199.88
2022-10-30T03:06:16.623Z,101204.00
2022-10-30T03:08:52.186Z,101201.38
2022-10-30T03:11:25.616Z,101202.19
2022-10-30T03:13:59.317Z,101198.75
2022-10-30T03:16:33.662Z,101199.66
2022-10-30T03:19:07.836Z,101196.06
2022-10-30T03:21:41.458Z,101201.38
2022-10-30T03:24:16.826Z,101207.34
2022-10-30T03:26:50.268Z,101215.94
2022-10-30T03:29:24.103Z,101207.75
2022-10-30T03:31:57.624Z,101198.91
2022-10-30T03:34:31.355Z,101205.13
2022-10-30T03:37:04.902Z,101205.06
2022-10-30T03:39:40.101Z,101207.59
2022-10-30T03:42:13.557Z,101206.53
2022-10-30T03:44:47.335Z,101209.00
2022-10-30T03:47:20.788Z,101204.59
2022-10-30T03:49:54.420Z,101209.84
2022-10-30T03:52:28.460Z,101218.50
2022-10-30T03:55:03.491Z,101212.28
2022-10-30T03:57:37.810Z,101212.97
2022-10-30T04:00:13.167Z,101216.16
2022-10-30T04:02:47.678Z,101218.59
2022-10-30T04:05:23.191Z,101223.66
2022-10-30T04:07:58.029Z,101215.53
2022-10-30T04:10:33.047Z,101221.56
2022-10-30T04:13:08.353Z,101213.56
2022-10-30T04:15:42.879Z,101218.88
2022-10-30T04:18:17.266Z,101222.38
2022-10-30T04:20:50.960Z,101226.78
2022-10-30T04:23:24.376Z,101212.00
2022-10-30T04:26:01.279Z,101219.25
2022-10-30T04:28:34.757Z,101225.38
2022-10-30T04:31:08.417Z,101213.19
2022-10-30T04:33:41.943Z,101209.69
2022-10-30T04:36:17.882Z,101204.25
2022-10-30T04:38:51.301Z,101197.88
2022-10-30T04:41:26.580Z,101208.25
2022-10-30T04:44:00.075Z,101204.56
2022-10-30T04:46:34.158Z,101201.84
2022-10-30T04:49:07.939Z,101192.03
2022-10-30T04:51:41.712Z,101192.88
2022-10-30T04:54:15.276Z,101202.34
2022-10-30T04:56:50.381Z,101194.28
2022-10-30T04:59:23.891Z,101199.50
2022-10-30T05:01:57.582Z,101196.00
2022-10-30T05:04:31.145Z,101192.56
2022-10-30T05:07:04.854Z,101199.72
2022-10-30T05:09:38.462Z,101200.53
2022-10-30T05:12:13.614Z,101211.00
2022-10-30T05:14:47.143Z,101198.69
2022-10-30T05:17:21.478Z,101196.28
2022-10-30T05:19:56.628Z,101203.50
2022-10-30T05:22:30.349Z,101203.41
2022-10-30T05:25:04.103Z,101199.72
2022-10-30T05:27:39.449Z,101199.63
2022-10-30T05:30:13.637Z,101202.03
2022-10-30T05:32:47.334Z,101206.28
2022-10-30T05:35:20.845Z,101206.19
2022-10-30T05:37:54.666Z,101201.78
2022-10-30T05:40:28.783Z,101206.84
2022-10-30T05:43:04.235Z,101203.16
2022-10-30T05:45:37.793Z,101204.94
2022-10-30T05:48:11.563Z,101207.38
2022-10-30T05:50:45.195Z,101215.22
2022-10-30T05:53:18.926Z,101213.41
2022-10-30T05:55:52.497Z,101216.13
2022-10-30T05:58:27.668Z,101216.13
2022-10-30T06:01:01.538Z,101217.75
2022-10-30T06:03:35.176Z,101222.81
2022-10-30T06:06:08.786Z,101218.19
2022-10-30T06:08:42.660Z,101227.72
2022-10-30T06:11:16.217Z,101226.75
2022-10-30T06:13:51.265Z,101231.06
2022-10-30T06:16:24.840Z,101230.06
2022-10-30T06:18:58.847Z,101223.94
2022-10-30T06:21:32.436Z,101230.97
2022-10-30T06:24:06.997Z,101234.56
2022-10-30T06:26:40.670Z,101237.28
2022-10-30T06:29:15.806Z,101249.53
2022-10-30T06:31:49.320Z,101247.91
2022-10-30T06:34:23.114Z,101246.19
2022-10-30T06:36:56.620Z,101247.22
2022-10-30T06:39:30.894Z,101243.88
2022-10-30T06:42:04.604Z,101248.28
2022-10-30T06:44:39.642Z,101246.03
2022-10-30T06:47:13.213Z,101243.84
2022-10-30T06:49:46.912Z,101234.69
2022-10-30T06:52:22.996Z,101253.25
2022-10-30T06:54:56.771Z,101249.09
2022-10-30T06:57:30.365Z,101255.03
2022-10-30T07:00:07.447Z,101260.34
2022-10-30T07:02:41.188Z,101259.88
2022-10-30T07:05:15.137Z,101263.13
2022-10-30T07:07:48.588Z,101267.72
2022-10-30T07:10:22.247Z,101269.63
2022-10-30T07:12:57.421Z,101272.06
2022-10-30T07:15:33.063Z,101262.00
2022-10-30T07:18:07.068Z,101268.94
2022-10-30T07:20:40.723Z,101275.56
2022-10-30T07:23:14.215Z,101279.91
2022-10-30T07:25:47.869Z,101281.88
2022-10-30T07:28:21.407Z,101275.38
2022-10-30T07:30:56.434Z,101273.78
2022-10-30T07:33:29.940Z,101278.22
2022-10-30T07:36:03.902Z,101290.13
2022-10-30T07:38:37.401Z,101281.38
2022-10-30T07:41:11.069Z,101284.25
2022-10-30T07:43:44.569Z,101287.22
2022-10-30T07:46:19.597Z,101289.28
2022-10-30T07:48:53.136Z,101292.22
2022-10-30T07:51:26.975Z,101297.16
2022-10-30T07:54:00.522Z,101289.72
2022-10-30T07:56:34.290Z,101298.25
2022-10-30T07:59:07.715Z,101300.88
2022-10-30T08:01:42.828Z,101298.94
2022-10-30T08:04:16.511Z,101308.06
2022-10-30T08:06:50.248Z,101309.31
2022-10-30T08:09:23.817Z,101304.31
2022-10-30T08:11:57.614Z,101305.63
2022-10-30T08:14:31.101Z,101307.75
2022-10-30T08:17:07.614Z,101314.13
2022-10-30T08:19:41.246Z,101308.16
2022-10-30T08:22:15.543Z,101309.22
2022-10-30T08:24:49.030Z,101303.47
2022-10-30T08:27:22.664Z,101307.28
2022-10-30T08:29:56.153Z,101303.75
2022-10-30T08:32:31.199Z,101307.63
2022-10-30T08:35:04.999Z,101307.91
2022-10-30T08:37:38.789Z,101306.25
2022-10-30T08:40:12.714Z,101316.22
2022-10-30T08:42:51.540Z,101313.69
2022-10-30T08:45:29.905Z,101314.91
2022-10-30T08:48:07.573Z,101318.38
2022-10-30T08:50:41.263Z,101322.63
2022-10-30T08:53:16.289Z,101315.41
2022-10-30T08:55:49.846Z,101310.16
2022-10-30T08:58:23.478Z,101314.66
2022-10-30T09:01:01.234Z,101314.97
2022-10-30T09:03:38.889Z,101311.06
2022-10-30T09:06:12.675Z,101317.63
2022-10-30T09:08:47.391Z,101316.63
2022-10-30T09:11:21.005Z,101324.91
2022-10-30T09:13:54.726Z,101329.69
2022-10-30T09:16:28.151Z,101323.19
2022-10-30T09:19:03.233Z,101323.75
2022-10-30T09:21:36.755Z,101318.16
2022-10-30T09:24:10.472Z,101323.06
2022-10-30T09:26:44.057Z,101320.13
2022-10-30T09:29:18.028Z,101323.16
2022-10-30T09:31:51.555Z,101328.00
2022-10-30T09:37:01.516Z,101328.16
2022-10-30T09:39:35.220Z,101329.03
2022-10-30T09:42:23.092Z,101319.00
2022-10-30T09:45:27.912Z,101330.03
2022-10-30T09:48:43.624Z,101325.31
2022-10-30T09:51:36.323Z,101335.13
2022-10-30T09:54:20.453Z,101332.72
2022-10-30T09:57:09.580Z,101335.06
2022-10-30T09:59:49.478Z,101333.81
2022-10-30T10:02:35.316Z,101339.03
2022-10-30T10:05:18.090Z,101327.16
2022-10-30T10:07:59.427Z,101332.81
2022-10-30T10:10:40.170Z,101332.59
2022-10-30T10:13:27.929Z,101326.50
2022-10-30T10:16:14.360Z,101321.34
2022-10-30T10:18:52.674Z,101318.81
2022-10-30T10:21:28.082Z,101323.28
2022-10-30T10:24:05.163Z,101326.44
2022-10-30T10:26:51.017Z,101328.94
2022-10-30T10:29:37.183Z,101314.75
2022-10-30T10:32:28.520Z,101314.81
2022-10-30T10:35:43.455Z,101309.03
2022-10-30T10:38:33.345Z,101308.78
2022-10-30T10:41:19.755Z,101302.13
2022-10-30T10:44:05.544Z,101299.72
2022-10-30T10:46:52.788Z,101302.41
2022-10-30T10:49:56.419Z,101293.88
2022-10-30T10:52:38.923Z,101300.25
2022-10-30T10:55:17.483Z,101303.03
2022-10-30T10:57:54.502Z,101301.34
2022-10-30T11:00:30.498Z,101297.97
2022-10-30T11:03:10.586Z,101302.38
2022-10-30T11:05:50.924Z,101297.19
2022-10-30T11:08:27.883Z,101298.88
2022-10-30T11:11:03.152Z,101291.84
2022-10-30T11:13:42.656Z,101295.44
2022-10-30T11:16:26.768Z,101298.19
2022-10-30T11:19:03.588Z,101300.81
2022-10-30T11:21:43.451Z,101298.22
2022-10-30T11:24:28.614Z,101302.84
2022-10-30T11:27:18.523Z,101296.19
2022-10-30T11:29:55.732Z,101303.50
2022-10-30T11:32:31.387Z,101290.31
2022-10-30T11:35:13.950Z,101296.53
2022-10-30T11:37:49.146Z,101301.31
2022-10-30T11:40:24.879Z,101293.81
2022-10-30T11:43:02.379Z,101299.88
2022-10-30T11:45:41.204Z,101293.72
2022-10-30T11:48:23.554Z,101300.84
2022-10-30T11:51:00.279Z,101300.69
2022-10-30T11:53:38.567Z,101295.41
2022-10-30T11:56:17.091Z,101293.66
2022-10-30T11:58:54.315Z,101298.81
2022-10-30T12:01:31.305Z,101292.63
2022-10-30T12:04:17.568Z,101283.84
2022-10-30T12:06:56.303Z,101282.19
2022-10-30T12:09:30.495Z,101283.91
2022-10-30T12:12:12.323Z,101283.00
2022-10-30T12:14:45.816Z,101283.84
2022-10-30T12:17:22.775Z,101280.34
2022-10-30T12:19:57.408Z,101282.06
2022-10-30T12:22:32.694Z,101283.75
2022-10-30T12:25:16.342Z,101290.84
2022-10-30T12:27:51.230Z,101288.19
2022-10-30T12:30:25.301Z,101290.94
2022-10-30T12:33:09.620Z,101286.59
2022-10-30T12:35:47.648Z,101293.16
2022-10-30T12:38:27.815Z,101301.91
2022-10-30T12:41:08.207Z,101292.84
2022-10-30T12:43:45.126Z,101290.06
2022-10-30T12:46:33.137Z,101286.34
2022-10-30T12:49:15.722Z,101287.13
2022-10-30T12:51:54.859Z,101282.47
2022-10-30T12:54:36.510Z,101283.94
2022-10-30T12:57:14.092Z,101287.25
2022-10-30T12:59:57.939Z,101280.13
2022-10-30T13:02:45.811Z,101281.06
2022-10-30T13:05:31.250Z,101286.34
2022-10-30T13:08:23.423Z,101279.41
2022-10-30T13:11:04.218Z,101277.81
2022-10-30T13:13:41.716Z,101280.41
2022-10-30T13:16:19.251Z,101280.44
2022-10-30T13:18:56.075Z,101278.59
2022-10-30T13:21:38.717Z,101274.13
2022-10-30T13:24:15.353Z,101277.63
2022-10-30T13:26:53.937Z,101274.78
2022-10-30T13:29:32.813Z,101276.44
2022-10-30T13:32:26.486Z,101278.47
2022-10-30T13:35:10.429Z,101279.22
2022-10-30T13:37:56.689Z,101275.59
2022-10-30T13:40:36.312Z,101283.53
2022-10-30T13:43:22.928Z,101288.75
2022-10-30T13:46:19.114Z,101295.69
2022-10-30T13:49:27.840Z,101283.09
2022-10-30T13:52:08.046Z,101278.50
2022-10-30T13:54:47.883Z,101270.31
2022-10-30T13:57:27.554Z,101271.88
2022-10-30T14:00:07.498Z,101266.34
2022-10-30T14:02:54.381Z,101273.19
2022-10-30T14:05:36.098Z,101269.59
2022-10-30T14:08:21.769Z,101264.41
2022-10-30T14:11:00.669Z,101269.50
2022-10-30T14:13:47.014Z,101270.06
2022-10-30T14:16:35.183Z,101272.47
2022-10-30T14:19:09.867Z,101274.06
2022-10-30T14:21:45.667Z,101275.75
2022-10-30T14:24:22.648Z,101268.53
2022-10-30T14:27:10.981Z,101265.72
2022-10-30T14:29:49.542Z,101270.81
2022-10-30T14:32:50.991Z,101271.53
2022-10-30T14:35:36.779Z,101287.16
2022-10-30T14:38:23.820Z,101286.94
2022-10-30T14:41:27.984Z,101281.38
2022-10-30T14:44:26.461Z,101288.38
2022-10-30T14:47:15.168Z,101281.41
2022-10-30T14:49:55.106Z,101274.41
2022-10-30T14:52:41.608Z,101269.88
2022-10-30T14:55:31.954Z,101267.91
2022-10-30T14:58:25.390Z,101266.84
2022-10-30T15:01:27.076Z,101267.44
2022-10-30T15:04:12.752Z,101266.50
2022-10-30T15:06:58.505Z,101266.34
2022-10-30T15:09:54.904Z,101257.38
2022-10-30T15:12:44.044Z,101258.09
2022-10-30T15:15:19.624Z,101258.75
2022-10-30T15:17:57.588Z,101260.19
2022-10-30T15:20:34.667Z,101261.59
2022-10-30T15:23:13.245Z,101253.25
2022-10-30T15:25:49.979Z,101248.56
2022-10-30T15:28:27.257Z,101257.88
2022-10-30T15:31:02.139Z,101257.59
2022-10-30T15:33:38.413Z,101252.88
2022-10-30T15:36:18.762Z,101248.13
2022-10-30T15:39:07.413Z,101248.66
2022-10-30T15:41:44.955Z,101251.78
2022-10-30T15:44:22.381Z,101251.44
2022-10-30T15:46:57.830Z,101253.75
2022-10-30T15:49:35.314Z,101242.94
2022-10-30T15:52:16.831Z,101247.91
2022-10-30T15:54:56.874Z,101250.22
2022-10-30T16:00:30.187Z,101246.88
2022-10-30T16:03:06.310Z,101246.69
2022-10-30T16:05:41.511Z,101247.34
2022-10-30T16:08:21.057Z,101249.53
2022-10-30T16:10:56.061Z,101253.56
2022-10-30T16:13:31.983Z,101263.78
2022-10-30T16:16:06.867Z,101266.16
2022-10-30T16:18:41.062Z,101269.47
2022-10-30T16:21:19.501Z,101263.00
2022-10-30T16:23:55.179Z,101265.31
2022-10-30T16:26:33.733Z,101274.72
2022-10-30T16:29:22.303Z,101264.78
2022-10-30T16:31:56.408Z,101255.94
2022-10-30T16:34:34.693Z,101261.03
2022-10-30T16:37:23.613Z,101260.88
2022-10-30T16:39:57.429Z,101259.84
2022-10-30T16:42:31.148Z,101254.44
2022-10-30T16:45:50.482Z,101256.94
2022-10-30T16:48:28.606Z,101263.78
2022-10-30T16:51:04.232Z,101260.09
2022-10-30T16:53:39.371Z,101258.25
2022-10-30T16:56:21.393Z,101259.75
2022-10-30T16:58:58.820Z,101261.34
2022-10-30T17:01:32.743Z,101267.28
2022-10-30T17:04:06.957Z,101268.78
2022-10-30T17:06:43.153Z,101267.75
2022-10-30T17:09:25.182Z,101269.22
2022-10-30T17:12:07.925Z,101275.22
2022-10-30T17:14:48.542Z,101275.09
2022-10-30T17:17:29.261Z,101277.56
2022-10-30T17:20:07.753Z,101282.59
2022-10-30T17:22:41.456Z,101279.75
2022-10-30T17:25:19.368Z,101276.13
2022-10-30T17:27:52.967Z,101276.94
2022-10-30T17:30:35.885Z,101283.91
2022-10-30T17:33:36.098Z,101288.94
2022-10-30T17:36:10.205Z,101288.72
2022-10-30T17:38:43.633Z,101285.06
2022-10-30T17:41:18.780Z,101288.50
2022-10-30T17:43:53.734Z,101284.91
2022-10-30T17:46:27.390Z,101285.53
2022-10-30T17:49:01.567Z,101288.91
2022-10-30T17:51:35.542Z,101284.34
2022-10-30T17:54:13.902Z,101289.44
2022-10-30T17:56:49.026Z,101297.16
2022-10-30T17:59:22.486Z,101300.75
2022-10-30T18:01:57.320Z,101304.88
2022-10-30T18:04:30.836Z,101300.38
2022-10-30T18:07:04.493Z,101294.88
2022-10-30T18:09:38.142Z,101304.38
2022-10-30T18:12:15.259Z,101308.56
2022-10-30T18:14:48.764Z,101318.91
2022-10-30T18:17:22.418Z,101314.41
2022-10-30T18:19:55.844Z,101315.97
2022-10-30T18:22:29.582Z,101314.25
2022-10-30T18:25:06.922Z,101311.47
2022-10-30T18:27:42.002Z,101303.59
2022-10-30T18:30:16.609Z,101309.56
2022-10-30T18:32:50.782Z,101305.13
2022-10-30T18:35:28.344Z,101312.09
2022-10-30T18:38:02.144Z,101306.88
2022-10-30T18:40:36.042Z,101311.94
2022-10-30T18:43:13.059Z,101318.75
2022-10-30T18:45:46.554Z,101309.81
2022-10-30T18:48:20.349Z,101320.13
2022-10-30T18:50:53.949Z,101324.31
2022-10-30T18:53:32.698Z,101323.31
2022-10-30T18:56:10.796Z,101326.84
2022-10-30T18:58:46.054Z,101328.38
2022-10-30T19:01:20.251Z,101327.41
2022-10-30T19:03:54.112Z,101325.66
2022-10-30T19:06:27.925Z,101320.44
2022-10-30T19:09:01.882Z,101322.81
2022-10-30T19:11:38.275Z,101328.78
2022-10-30T19:14:15.906Z,101328.06
2022-10-30T19:16:49.524Z,101325.44
2022-10-30T19:19:23.175Z,101327.72
2022-10-30T19:21:56.604Z,101321.34
2022-10-30T19:24:30.317Z,101320.38
2022-10-30T19:27:03.791Z,101316.66
2022-10-30T19:29:38.756Z,101323.53
2022-10-30T19:32:12.205Z,101319.84
2022-10-30T19:34:46.598Z,101318.88
2022-10-30T19:37:20.169Z,101327.47
2022-10-30T19:39:53.832Z,101316.91
2022-10-30T19:42:27.279Z,101324.69
2022-10-30T19:45:02.322Z,101328.84
2022-10-30T19:47:36.559Z,101325.22
2022-10-30T19:50:35.202Z,101320.72
2022-10-30T19:53:09.251Z,101324.97
2022-10-30T19:55:44.525Z,101327.41
2022-10-30T19:58:20.896Z,101328.22
2022-10-30T20:01:00.187Z,101327.25
2022-10-30T20:03:33.802Z,101330.59
2022-10-30T20:06:08.032Z,101331.34
2022-10-30T20:08:41.560Z,101336.41
2022-10-30T20:11:15.292Z,101339.63
2022-10-30T20:13:50.735Z,101334.97
2022-10-30T20:16:29.758Z,101332.19
2022-10-30T20:19:05.453Z,101332.81
2022-10-30T20:21:39.121Z,101327.41
2022-10-30T20:24:12.591Z,101323.00
2022-10-30T20:26:46.318Z,101328.16
2022-10-30T20:29:19.983Z,101338.63
2022-10-30T20:31:54.969Z,101337.50
2022-10-30T20:34:28.424Z,101339.97
2022-10-30T20:37:02.095Z,101340.69
2022-10-30T20:39:35.592Z,101337.00
2022-10-30T20:42:10.154Z,101340.34
2022-10-30T20:44:43.605Z,101350.81
2022-10-30T20:47:18.700Z,101346.22
2022-10-30T20:49:52.379Z,101346.03
2022-10-30T20:52:27.224Z,101344.84
2022-10-30T20:55:00.882Z,101350.69
2022-10-30T20:57:34.811Z,101351.41
2022-10-30T21:00:10.468Z,101347.72
2022-10-30T21:02:45.877Z,101353.75
2022-10-30T21:05:42.255Z,101351.88
2022-10-30T21:08:13.385Z,101355.31
2022-10-30T21:10:46.895Z,101354.41
2022-10-30T21:13:20.623Z,101352.69
2022-10-30T21:15:54.084Z,101356.09
2022-10-30T21:18:29.333Z,101354.19
2022-10-30T21:21:03.905Z,101352.28
2022-10-30T21:23:37.594Z,101352.28
2022-10-30T21:26:12.054Z,101349.59
2022-10-30T21:28:45.757Z,101354.72
2022-10-30T21:31:19.262Z,101344.19
2022-10-30T21:33:54.341Z,101348.44
2022-10-30T21:36:28.091Z,101348.25
2022-10-30T21:39:01.823Z,101346.34
2022-10-30T21:41:35.514Z,101351.50
2022-10-30T21:44:10.590Z,101354.03
2022-10-30T21:46:44.141Z,101350.41
2022-10-30T21:49:19.452Z,101346.00
2022-10-30T21:51:53.004Z,101356.25
2022-10-30T21:54:26.736Z,101347.50
2022-10-30T21:57:00.306Z,101351.72
2022-10-30T21:59:34.115Z,101348.03
2022-10-30T22:02:07.952Z,101347.94
2022-10-30T22:04:43.110Z,101343.44
2022-10-30T22:07:18.680Z,101340.75
2022-10-30T22:09:53.504Z,101340.66
2022-10-30T22:12:27.073Z,101343.34
2022-10-30T22:15:00.780Z,101347.41
2022-10-30T22:17:35.137Z,101348.91
2022-10-30T22:20:12.225Z,101354.03
2022-10-30T22:22:45.739Z,101353.03
2022-10-30T22:25:19.579Z,101357.19
2022-10-30T22:27:53.190Z,101359.53
2022-10-30T22:30:26.944Z,101359.34
2022-10-30T22:33:00.814Z,101357.53
2022-10-30T22:35:38.561Z,101357.44
2022-10-30T22:38:12.894Z,101362.66
2022-10-30T22:40:46.616Z,101357.34
2022-10-30T22:43:20.227Z,101361.75
2022-10-30T22:45:54.565Z,101366.91
2022-10-30T22:48:28.999Z,101364.97
2022-10-30T22:51:08.485Z,101358.84
2022-10-30T22:53:46.136Z,101376.22
2022-10-30T22:56:23.932Z,101370.00
2022-10-30T22:58:57.955Z,101372.53
2022-10-30T23:01:33.840Z,101370.63
2022-10-30T23:04:09.006Z,101367.03
2022-10-30T23:06:44.842Z,101364.22
2022-10-30T23:09:22.114Z,101365.84
2022-10-30T23:11:55.788Z,101360.53
2022-10-30T23:14:29.264Z,101371.59
2022-10-30T23:17:03.011Z,101370.56
2022-10-30T23:19:36.539Z,101383.50
2022-10-30T23:22:11.605Z,101384.31
2022-10-30T23:24:45.143Z,101382.41
2022-10-30T23:27:18.905Z,101382.31
2022-10-30T23:29:52.351Z,101398.00
2022-10-30T23:32:26.099Z,101388.25
2022-10-30T23:34:59.478Z,101397.91
2022-10-30T23:37:34.597Z,101395.19
2022-10-30T23:40:09.539Z,101395.09
2022-10-30T23:42:43.245Z,101394.19
2022-10-30T23:45:16.739Z,101408.06
2022-10-30T23:47:50.559Z,101408.06
2022-10-30T23:50:24.103Z,101402.81
2022-10-30T23:52:59.258Z,101408.84
2022-10-30T23:55:32.815Z,101411.47
2022-10-30T23:58:06.927Z,101410.56
